sensor_id;sensor_type;location;lat;lon;timestamp;P1;durP1;ratioP1;P2;durP2;ratioP2
60478;SDS011;46321;48.398;11.754;2023-10-31T00:02:15;3.80;;;2.65;;
60478;SDS011;46321;48.398;11.754;2023-10-31T00:04:40;3.53;;;2.72;;
60478;SDS011;46321;48.398;11.754;2023-10-31T00:07:05;4.55;;;2.92;;
60478;SDS011;46321;48.398;11.754;2023-10-31T00:09:30;4.35;;;2.80;;
60478;SDS011;46321;48.398;11.754;2023-10-31T00:11:56;4.70;;;3.08;;
60478;SDS011;46321;48.398;11.754;2023-10-31T00:14:22;4.05;;;2.83;;
60478;SDS011;46321;48.398;11.754;2023-10-31T00:16:47;3.22;;;2.35;;
60478;SDS011;46321;48.398;11.754;2023-10-31T00:19:13;4.97;;;2.40;;
60478;SDS011;46321;48.398;11.754;2023-10-31T00:21:39;3.30;;;2.13;;
60478;SDS011;46321;48.398;11.754;2023-10-31T00:24:04;3.22;;;2.22;;
60478;SDS011;46321;48.398;11.754;2023-10-31T00:26:30;3.20;;;2.10;;
60478;SDS011;46321;48.398;11.754;2023-10-31T00:28:55;3.47;;;2.10;;
60478;SDS011;46321;48.398;11.754;2023-10-31T00:31:20;2.90;;;1.98;;
60478;SDS011;46321;48.398;11.754;2023-10-31T00:33:45;2.80;;;1.88;;
60478;SDS011;46321;48.398;11.754;2023-10-31T00:36:11;3.30;;;2.08;;
60478;SDS011;46321;48.398;11.754;2023-10-31T00:38:36;3.88;;;2.05;;
60478;SDS011;46321;48.398;11.754;2023-10-31T00:41:02;2.60;;;1.83;;
60478;SDS011;46321;48.398;11.754;2023-10-31T00:43:27;3.47;;;2.00;;
60478;SDS011;46321;48.398;11.754;2023-10-31T00:45:52;2.90;;;2.00;;
60478;SDS011;46321;48.398;11.754;2023-10-31T00:48:19;2.72;;;1.90;;
60478;SDS011;46321;48.398;11.754;2023-10-31T00:50:44;3.05;;;1.90;;
60478;SDS011;46321;48.398;11.754;2023-10-31T00:53:10;2.63;;;1.98;;
60478;SDS011;46321;48.398;11.754;2023-10-31T00:55:35;2.45;;;1.50;;
60478;SDS011;46321;48.398;11.754;2023-10-31T00:58:00;2.15;;;1.20;;
60478;SDS011;46321;48.398;11.754;2023-10-31T01:00:26;2.05;;;1.40;;
60478;SDS011;46321;48.398;11.754;2023-10-31T01:02:51;1.50;;;1.00;;
60478;SDS011;46321;48.398;11.754;2023-10-31T01:05:16;1.52;;;0.90;;
60478;SDS011;46321;48.398;11.754;2023-10-31T01:07:42;0.98;;;0.63;;
60478;SDS011;46321;48.398;11.754;2023-10-31T01:10:07;1.23;;;0.60;;
60478;SDS011;46321;48.398;11.754;2023-10-31T01:12:32;0.70;;;0.50;;
60478;SDS011;46321;48.398;11.754;2023-10-31T01:14:58;0.95;;;0.45;;
60478;SDS011;46321;48.398;11.754;2023-10-31T01:17:23;0.65;;;0.50;;
60478;SDS011;46321;48.398;11.754;2023-10-31T01:19:48;1.83;;;0.50;;
60478;SDS011;46321;48.398;11.754;2023-10-31T01:22:14;0.63;;;0.50;;
60478;SDS011;46321;48.398;11.754;2023-10-31T01:24:39;1.33;;;0.30;;
60478;SDS011;46321;48.398;11.754;2023-10-31T01:27:04;0.80;;;0.40;;
60478;SDS011;46321;48.398;11.754;2023-10-31T01:29:30;0.38;;;0.30;;
60478;SDS011;46321;48.398;11.754;2023-10-31T01:31:56;0.50;;;0.32;;
60478;SDS011;46321;48.398;11.754;2023-10-31T01:34:21;0.65;;;0.30;;
60478;SDS011;46321;48.398;11.754;2023-10-31T01:36:46;0.50;;;0.32;;
60478;SDS011;46321;48.398;11.754;2023-10-31T01:39:12;0.35;;;0.30;;
60478;SDS011;46321;48.398;11.754;2023-10-31T01:41:37;0.50;;;0.35;;
60478;SDS011;46321;48.398;11.754;2023-10-31T01:44:02;0.50;;;0.32;;
60478;SDS011;46321;48.398;11.754;2023-10-31T01:46:29;0.40;;;0.25;;
60478;SDS011;46321;48.398;11.754;2023-10-31T01:48:55;0.85;;;0.40;;
60478;SDS011;46321;48.398;11.754;2023-10-31T01:51:20;0.20;;;0.20;;
60478;SDS011;46321;48.398;11.754;2023-10-31T01:53:46;0.63;;;0.35;;
60478;SDS011;46321;48.398;11.754;2023-10-31T01:56:12;1.48;;;0.50;;
60478;SDS011;46321;48.398;11.754;2023-10-31T01:58:38;0.50;;;0.30;;
60478;SDS011;46321;48.398;11.754;2023-10-31T02:01:04;0.73;;;0.50;;
60478;SDS011;46321;48.398;11.754;2023-10-31T02:03:30;2.60;;;0.38;;
60478;SDS011;46321;48.398;11.754;2023-10-31T02:05:56;0.47;;;0.30;;
60478;SDS011;46321;48.398;11.754;2023-10-31T02:08:22;0.65;;;0.40;;
60478;SDS011;46321;48.398;11.754;2023-10-31T02:10:47;0.55;;;0.35;;
60478;SDS011;46321;48.398;11.754;2023-10-31T02:13:13;0.40;;;0.30;;
60478;SDS011;46321;48.398;11.754;2023-10-31T02:15:42;0.30;;;0.30;;
60478;SDS011;46321;48.398;11.754;2023-10-31T02:18:09;0.32;;;0.25;;
60478;SDS011;46321;48.398;11.754;2023-10-31T02:20:34;0.45;;;0.38;;
60478;SDS011;46321;48.398;11.754;2023-10-31T02:23:00;1.48;;;0.38;;
60478;SDS011;46321;48.398;11.754;2023-10-31T02:25:26;2.55;;;0.30;;
60478;SDS011;46321;48.398;11.754;2023-10-31T02:27:51;0.30;;;0.28;;
60478;SDS011;46321;48.398;11.754;2023-10-31T02:30:17;1.17;;;0.40;;
60478;SDS011;46321;48.398;11.754;2023-10-31T02:32:42;1.45;;;0.22;;
60478;SDS011;46321;48.398;11.754;2023-10-31T02:35:08;0.80;;;0.63;;
60478;SDS011;46321;48.398;11.754;2023-10-31T02:37:33;0.20;;;0.20;;
60478;SDS011;46321;48.398;11.754;2023-10-31T02:39:59;0.20;;;0.20;;
60478;SDS011;46321;48.398;11.754;2023-10-31T02:42:25;0.68;;;0.20;;
60478;SDS011;46321;48.398;11.754;2023-10-31T02:44:51;0.85;;;0.20;;
60478;SDS011;46321;48.398;11.754;2023-10-31T02:47:16;0.32;;;0.20;;
60478;SDS011;46321;48.398;11.754;2023-10-31T02:49:41;0.63;;;0.25;;
60478;SDS011;46321;48.398;11.754;2023-10-31T02:52:07;0.55;;;0.32;;
60478;SDS011;46321;48.398;11.754;2023-10-31T02:54:32;0.20;;;0.20;;
60478;SDS011;46321;48.398;11.754;2023-10-31T02:56:58;0.15;;;0.15;;
60478;SDS011;46321;48.398;11.754;2023-10-31T02:59:23;0.50;;;0.20;;
60478;SDS011;46321;48.398;11.754;2023-10-31T03:01:49;0.15;;;0.10;;
60478;SDS011;46321;48.398;11.754;2023-10-31T03:04:14;0.10;;;0.10;;
60478;SDS011;46321;48.398;11.754;2023-10-31T03:06:39;0.13;;;0.13;;
60478;SDS011;46321;48.398;11.754;2023-10-31T03:09:06;0.47;;;0.22;;
60478;SDS011;46321;48.398;11.754;2023-10-31T03:11:31;0.20;;;0.20;;
60478;SDS011;46321;48.398;11.754;2023-10-31T03:13:57;0.55;;;0.20;;
60478;SDS011;46321;48.398;11.754;2023-10-31T03:16:23;0.40;;;0.20;;
60478;SDS011;46321;48.398;11.754;2023-10-31T03:18:48;0.80;;;0.30;;
60478;SDS011;46321;48.398;11.754;2023-10-31T03:21:14;1.30;;;0.20;;
60478;SDS011;46321;48.398;11.754;2023-10-31T03:23:40;0.20;;;0.20;;
60478;SDS011;46321;48.398;11.754;2023-10-31T03:26:05;0.28;;;0.20;;
60478;SDS011;46321;48.398;11.754;2023-10-31T03:28:31;0.82;;;0.20;;
60478;SDS011;46321;48.398;11.754;2023-10-31T03:30:56;0.20;;;0.20;;
60478;SDS011;46321;48.398;11.754;2023-10-31T03:33:22;0.75;;;0.28;;
60478;SDS011;46321;48.398;11.754;2023-10-31T03:35:48;0.55;;;0.20;;
60478;SDS011;46321;48.398;11.754;2023-10-31T03:38:13;2.35;;;0.20;;
60478;SDS011;46321;48.398;11.754;2023-10-31T03:40:39;0.20;;;0.20;;
60478;SDS011;46321;48.398;11.754;2023-10-31T03:43:04;0.28;;;0.20;;
60478;SDS011;46321;48.398;11.754;2023-10-31T03:45:29;0.17;;;0.17;;
60478;SDS011;46321;48.398;11.754;2023-10-31T03:47:54;0.30;;;0.20;;
60478;SDS011;46321;48.398;11.754;2023-10-31T03:50:20;0.28;;;0.20;;
60478;SDS011;46321;48.398;11.754;2023-10-31T03:52:45;0.10;;;0.10;;
60478;SDS011;46321;48.398;11.754;2023-10-31T03:55:10;0.20;;;0.10;;
60478;SDS011;46321;48.398;11.754;2023-10-31T03:57:35;0.38;;;0.20;;
60478;SDS011;46321;48.398;11.754;2023-10-31T04:00:01;0.28;;;0.20;;
60478;SDS011;46321;48.398;11.754;2023-10-31T04:02:29;0.40;;;0.20;;
60478;SDS011;46321;48.398;11.754;2023-10-31T04:04:54;0.13;;;0.10;;
60478;SDS011;46321;48.398;11.754;2023-10-31T04:07:20;0.32;;;0.20;;
60478;SDS011;46321;48.398;11.754;2023-10-31T04:09:45;0.38;;;0.20;;
60478;SDS011;46321;48.398;11.754;2023-10-31T04:12:11;0.28;;;0.20;;
60478;SDS011;46321;48.398;11.754;2023-10-31T04:14:37;1.00;;;0.20;;
60478;SDS011;46321;48.398;11.754;2023-10-31T04:17:03;0.88;;;0.40;;
60478;SDS011;46321;48.398;11.754;2023-10-31T04:19:29;0.43;;;0.20;;
60478;SDS011;46321;48.398;11.754;2023-10-31T04:21:54;1.00;;;0.20;;
60478;SDS011;46321;48.398;11.754;2023-10-31T04:24:20;0.38;;;0.30;;
60478;SDS011;46321;48.398;11.754;2023-10-31T04:26:45;0.50;;;0.30;;
60478;SDS011;46321;48.398;11.754;2023-10-31T04:29:10;0.43;;;0.25;;
60478;SDS011;46321;48.398;11.754;2023-10-31T04:31:36;0.50;;;0.40;;
60478;SDS011;46321;48.398;11.754;2023-10-31T04:34:01;1.27;;;0.35;;
60478;SDS011;46321;48.398;11.754;2023-10-31T04:36:26;0.40;;;0.25;;
60478;SDS011;46321;48.398;11.754;2023-10-31T04:38:51;1.67;;;0.30;;
60478;SDS011;46321;48.398;11.754;2023-10-31T04:41:17;0.30;;;0.30;;
60478;SDS011;46321;48.398;11.754;2023-10-31T04:43:42;0.45;;;0.30;;
60478;SDS011;46321;48.398;11.754;2023-10-31T04:46:07;0.82;;;0.50;;
60478;SDS011;46321;48.398;11.754;2023-10-31T04:48:32;0.40;;;0.30;;
60478;SDS011;46321;48.398;11.754;2023-10-31T04:50:58;0.52;;;0.47;;
60478;SDS011;46321;48.398;11.754;2023-10-31T04:53:24;1.33;;;0.47;;
60478;SDS011;46321;48.398;11.754;2023-10-31T04:55:49;0.70;;;0.47;;
60478;SDS011;46321;48.398;11.754;2023-10-31T04:58:14;0.75;;;0.50;;
60478;SDS011;46321;48.398;11.754;2023-10-31T05:00:40;2.67;;;1.75;;
60478;SDS011;46321;48.398;11.754;2023-10-31T05:03:06;1.15;;;0.35;;
60478;SDS011;46321;48.398;11.754;2023-10-31T05:05:31;0.40;;;0.30;;
60478;SDS011;46321;48.398;11.754;2023-10-31T05:07:56;0.40;;;0.40;;
60478;SDS011;46321;48.398;11.754;2023-10-31T05:10:23;0.45;;;0.40;;
60478;SDS011;46321;48.398;11.754;2023-10-31T05:12:48;0.90;;;0.52;;
60478;SDS011;46321;48.398;11.754;2023-10-31T05:15:13;0.75;;;0.30;;
60478;SDS011;46321;48.398;11.754;2023-10-31T05:17:39;0.60;;;0.43;;
60478;SDS011;46321;48.398;11.754;2023-10-31T05:20:04;0.50;;;0.40;;
60478;SDS011;46321;48.398;11.754;2023-10-31T05:22:30;0.88;;;0.50;;
60478;SDS011;46321;48.398;11.754;2023-10-31T05:24:55;0.85;;;0.60;;
60478;SDS011;46321;48.398;11.754;2023-10-31T05:27:20;1.13;;;0.60;;
60478;SDS011;46321;48.398;11.754;2023-10-31T05:29:45;2.47;;;0.68;;
60478;SDS011;46321;48.398;11.754;2023-10-31T05:32:11;1.95;;;0.70;;
60478;SDS011;46321;48.398;11.754;2023-10-31T05:34:36;1.13;;;0.50;;
60478;SDS011;46321;48.398;11.754;2023-10-31T05:37:01;1.05;;;0.60;;
60478;SDS011;46321;48.398;11.754;2023-10-31T05:39:27;1.45;;;0.60;;
60478;SDS011;46321;48.398;11.754;2023-10-31T05:41:52;0.70;;;0.55;;
60478;SDS011;46321;48.398;11.754;2023-10-31T05:44:17;0.82;;;0.50;;
60478;SDS011;46321;48.398;11.754;2023-10-31T05:46:43;2.15;;;0.60;;
60478;SDS011;46321;48.398;11.754;2023-10-31T05:49:08;0.65;;;0.52;;
60478;SDS011;46321;48.398;11.754;2023-10-31T05:51:33;1.75;;;0.80;;
60478;SDS011;46321;48.398;11.754;2023-10-31T05:54:00;1.33;;;0.60;;
60478;SDS011;46321;48.398;11.754;2023-10-31T05:56:25;1.02;;;0.60;;
60478;SDS011;46321;48.398;11.754;2023-10-31T05:58:50;1.17;;;0.70;;
60478;SDS011;46321;48.398;11.754;2023-10-31T06:01:16;0.82;;;0.60;;
60478;SDS011;46321;48.398;11.754;2023-10-31T06:03:41;0.90;;;0.68;;
60478;SDS011;46321;48.398;11.754;2023-10-31T06:06:08;1.10;;;0.60;;
60478;SDS011;46321;48.398;11.754;2023-10-31T06:08:33;1.63;;;0.60;;
60478;SDS011;46321;48.398;11.754;2023-10-31T06:10:59;0.93;;;0.60;;
60478;SDS011;46321;48.398;11.754;2023-10-31T06:13:25;1.30;;;0.88;;
60478;SDS011;46321;48.398;11.754;2023-10-31T06:15:54;2.17;;;0.63;;
60478;SDS011;46321;48.398;11.754;2023-10-31T06:18:20;0.50;;;0.50;;
60478;SDS011;46321;48.398;11.754;2023-10-31T06:20:45;1.85;;;0.57;;
60478;SDS011;46321;48.398;11.754;2023-10-31T06:23:11;1.02;;;0.63;;
60478;SDS011;46321;48.398;11.754;2023-10-31T06:25:36;1.05;;;0.70;;
60478;SDS011;46321;48.398;11.754;2023-10-31T06:28:01;0.50;;;0.50;;
60478;SDS011;46321;48.398;11.754;2023-10-31T06:30:26;1.80;;;0.70;;
60478;SDS011;46321;48.398;11.754;2023-10-31T06:32:53;1.23;;;0.77;;
60478;SDS011;46321;48.398;11.754;2023-10-31T06:35:18;1.27;;;0.68;;
60478;SDS011;46321;48.398;11.754;2023-10-31T06:37:44;2.20;;;0.90;;
60478;SDS011;46321;48.398;11.754;2023-10-31T06:40:09;2.08;;;0.75;;
60478;SDS011;46321;48.398;11.754;2023-10-31T06:42:35;2.65;;;0.93;;
60478;SDS011;46321;48.398;11.754;2023-10-31T06:45:01;1.42;;;0.68;;
60478;SDS011;46321;48.398;11.754;2023-10-31T06:47:26;1.98;;;0.77;;
60478;SDS011;46321;48.398;11.754;2023-10-31T06:49:51;1.10;;;0.70;;
60478;SDS011;46321;48.398;11.754;2023-10-31T06:52:17;2.60;;;0.95;;
60478;SDS011;46321;48.398;11.754;2023-10-31T06:54:42;2.25;;;0.63;;
60478;SDS011;46321;48.398;11.754;2023-10-31T06:57:07;2.05;;;0.85;;
60478;SDS011;46321;48.398;11.754;2023-10-31T06:59:33;0.90;;;0.80;;
60478;SDS011;46321;48.398;11.754;2023-10-31T07:01:59;0.88;;;0.85;;
60478;SDS011;46321;48.398;11.754;2023-10-31T07:04:25;1.65;;;0.80;;
60478;SDS011;46321;48.398;11.754;2023-10-31T07:06:50;1.20;;;0.60;;
60478;SDS011;46321;48.398;11.754;2023-10-31T07:09:22;0.90;;;0.68;;
60478;SDS011;46321;48.398;11.754;2023-10-31T07:11:47;1.05;;;0.63;;
60478;SDS011;46321;48.398;11.754;2023-10-31T07:14:13;2.63;;;0.73;;
60478;SDS011;46321;48.398;11.754;2023-10-31T07:16:38;0.88;;;0.65;;
60478;SDS011;46321;48.398;11.754;2023-10-31T07:19:04;1.52;;;0.70;;
60478;SDS011;46321;48.398;11.754;2023-10-31T07:21:29;2.38;;;0.70;;
60478;SDS011;46321;48.398;11.754;2023-10-31T07:23:55;1.23;;;0.70;;
60478;SDS011;46321;48.398;11.754;2023-10-31T07:26:20;3.47;;;1.52;;
60478;SDS011;46321;48.398;11.754;2023-10-31T07:28:46;2.90;;;1.00;;
60478;SDS011;46321;48.398;11.754;2023-10-31T07:31:12;2.08;;;1.05;;
60478;SDS011;46321;48.398;11.754;2023-10-31T07:33:37;4.07;;;0.95;;
60478;SDS011;46321;48.398;11.754;2023-10-31T07:36:03;1.13;;;0.77;;
60478;SDS011;46321;48.398;11.754;2023-10-31T07:38:29;1.23;;;0.80;;
60478;SDS011;46321;48.398;11.754;2023-10-31T07:40:54;1.20;;;0.90;;
60478;SDS011;46321;48.398;11.754;2023-10-31T07:43:19;1.77;;;0.88;;
60478;SDS011;46321;48.398;11.754;2023-10-31T07:45:45;1.38;;;0.80;;
60478;SDS011;46321;48.398;11.754;2023-10-31T07:48:10;1.20;;;0.80;;
60478;SDS011;46321;48.398;11.754;2023-10-31T07:50:35;1.83;;;0.77;;
60478;SDS011;46321;48.398;11.754;2023-10-31T07:53:00;2.92;;;0.70;;
60478;SDS011;46321;48.398;11.754;2023-10-31T07:55:26;0.82;;;0.70;;
60478;SDS011;46321;48.398;11.754;2023-10-31T07:57:51;2.25;;;0.90;;
60478;SDS011;46321;48.398;11.754;2023-10-31T08:00:16;2.70;;;1.10;;
60478;SDS011;46321;48.398;11.754;2023-10-31T08:02:42;3.05;;;0.82;;
60478;SDS011;46321;48.398;11.754;2023-10-31T08:05:07;1.33;;;0.75;;
60478;SDS011;46321;48.398;11.754;2023-10-31T08:07:33;2.75;;;0.80;;
60478;SDS011;46321;48.398;11.754;2023-10-31T08:09:58;1.17;;;0.63;;
60478;SDS011;46321;48.398;11.754;2023-10-31T08:12:23;1.02;;;0.80;;
60478;SDS011;46321;48.398;11.754;2023-10-31T08:14:48;1.70;;;0.75;;
60478;SDS011;46321;48.398;11.754;2023-10-31T08:17:14;1.95;;;0.90;;
60478;SDS011;46321;48.398;11.754;2023-10-31T08:19:39;2.78;;;1.13;;
60478;SDS011;46321;48.398;11.754;2023-10-31T08:22:04;5.15;;;3.25;;
60478;SDS011;46321;48.398;11.754;2023-10-31T08:24:30;1.80;;;0.70;;
60478;SDS011;46321;48.398;11.754;2023-10-31T08:26:55;2.35;;;0.70;;
60478;SDS011;46321;48.398;11.754;2023-10-31T08:29:20;2.08;;;0.85;;
60478;SDS011;46321;48.398;11.754;2023-10-31T08:31:46;2.72;;;0.70;;
60478;SDS011;46321;48.398;11.754;2023-10-31T08:34:11;1.67;;;0.80;;
60478;SDS011;46321;48.398;11.754;2023-10-31T08:36:36;1.48;;;0.80;;
60478;SDS011;46321;48.398;11.754;2023-10-31T08:39:02;2.67;;;0.60;;
60478;SDS011;46321;48.398;11.754;2023-10-31T08:41:28;1.55;;;0.70;;
60478;SDS011;46321;48.398;11.754;2023-10-31T08:43:53;2.60;;;0.80;;
60478;SDS011;46321;48.398;11.754;2023-10-31T08:46:19;1.77;;;0.68;;
60478;SDS011;46321;48.398;11.754;2023-10-31T08:48:44;1.33;;;0.60;;
60478;SDS011;46321;48.398;11.754;2023-10-31T08:51:09;1.48;;;0.50;;
60478;SDS011;46321;48.398;11.754;2023-10-31T08:53:35;1.17;;;0.60;;
60478;SDS011;46321;48.398;11.754;2023-10-31T08:56:00;1.33;;;0.60;;
60478;SDS011;46321;48.398;11.754;2023-10-31T08:58:27;0.60;;;0.50;;
60478;SDS011;46321;48.398;11.754;2023-10-31T09:00:53;1.15;;;0.60;;
60478;SDS011;46321;48.398;11.754;2023-10-31T09:03:18;0.75;;;0.50;;
60478;SDS011;46321;48.398;11.754;2023-10-31T09:05:44;3.00;;;0.60;;
60478;SDS011;46321;48.398;11.754;2023-10-31T09:08:09;1.02;;;0.50;;
60478;SDS011;46321;48.398;11.754;2023-10-31T09:10:36;1.67;;;0.70;;
60478;SDS011;46321;48.398;11.754;2023-10-31T09:13:03;1.90;;;0.70;;
60478;SDS011;46321;48.398;11.754;2023-10-31T09:15:28;1.63;;;0.80;;
60478;SDS011;46321;48.398;11.754;2023-10-31T09:17:53;3.20;;;1.00;;
60478;SDS011;46321;48.398;11.754;2023-10-31T09:20:19;3.25;;;1.10;;
60478;SDS011;46321;48.398;11.754;2023-10-31T09:22:44;1.45;;;1.02;;
60478;SDS011;46321;48.398;11.754;2023-10-31T09:25:09;0.60;;;0.60;;
60478;SDS011;46321;48.398;11.754;2023-10-31T09:27:35;1.67;;;0.68;;
60478;SDS011;46321;48.398;11.754;2023-10-31T09:30:02;1.08;;;0.60;;
60478;SDS011;46321;48.398;11.754;2023-10-31T09:32:27;3.25;;;0.70;;
60478;SDS011;46321;48.398;11.754;2023-10-31T09:34:52;1.38;;;0.77;;
60478;SDS011;46321;48.398;11.754;2023-10-31T09:37:18;4.22;;;0.68;;
60478;SDS011;46321;48.398;11.754;2023-10-31T09:39:43;2.40;;;0.70;;
60478;SDS011;46321;48.398;11.754;2023-10-31T09:42:08;2.88;;;0.55;;
60478;SDS011;46321;48.398;11.754;2023-10-31T09:44:34;1.23;;;0.70;;
60478;SDS011;46321;48.398;11.754;2023-10-31T09:46:59;1.02;;;0.70;;
60478;SDS011;46321;48.398;11.754;2023-10-31T09:49:26;1.63;;;0.90;;
60478;SDS011;46321;48.398;11.754;2023-10-31T09:51:51;1.88;;;1.00;;
60478;SDS011;46321;48.398;11.754;2023-10-31T09:54:17;5.03;;;1.13;;
60478;SDS011;46321;48.398;11.754;2023-10-31T09:56:42;1.70;;;0.80;;
60478;SDS011;46321;48.398;11.754;2023-10-31T09:59:08;1.05;;;0.75;;
60478;SDS011;46321;48.398;11.754;2023-10-31T10:01:34;1.40;;;0.63;;
60478;SDS011;46321;48.398;11.754;2023-10-31T10:03:59;3.78;;;0.75;;
60478;SDS011;46321;48.398;11.754;2023-10-31T10:06:24;2.13;;;0.57;;
60478;SDS011;46321;48.398;11.754;2023-10-31T10:08:50;3.28;;;1.00;;
60478;SDS011;46321;48.398;11.754;2023-10-31T10:11:15;1.23;;;0.60;;
60478;SDS011;46321;48.398;11.754;2023-10-31T10:13:41;3.50;;;0.80;;
60478;SDS011;46321;48.398;11.754;2023-10-31T10:16:06;2.80;;;0.68;;
60478;SDS011;46321;48.398;11.754;2023-10-31T10:18:32;2.17;;;0.73;;
60478;SDS011;46321;48.398;11.754;2023-10-31T10:21:05;2.90;;;0.80;;
60478;SDS011;46321;48.398;11.754;2023-10-31T10:23:32;0.93;;;0.60;;
60478;SDS011;46321;48.398;11.754;2023-10-31T10:25:59;4.47;;;0.90;;
60478;SDS011;46321;48.398;11.754;2023-10-31T10:28:25;2.08;;;0.70;;
60478;SDS011;46321;48.398;11.754;2023-10-31T10:30:51;2.10;;;0.68;;
60478;SDS011;46321;48.398;11.754;2023-10-31T10:33:18;1.40;;;0.50;;
60478;SDS011;46321;48.398;11.754;2023-10-31T10:35:44;1.52;;;0.75;;
60478;SDS011;46321;48.398;11.754;2023-10-31T10:38:13;0.82;;;0.60;;
60478;SDS011;46321;48.398;11.754;2023-10-31T10:40:41;2.65;;;0.68;;
60478;SDS011;46321;48.398;11.754;2023-10-31T10:43:12;3.25;;;0.80;;
60478;SDS011;46321;48.398;11.754;2023-10-31T10:45:42;1.55;;;1.00;;
60478;SDS011;46321;48.398;11.754;2023-10-31T10:48:10;1.83;;;0.50;;
60478;SDS011;46321;48.398;11.754;2023-10-31T10:50:38;2.08;;;0.80;;
60478;SDS011;46321;48.398;11.754;2023-10-31T10:53:09;1.75;;;0.80;;
60478;SDS011;46321;48.398;11.754;2023-10-31T10:55:52;1.27;;;0.80;;
60478;SDS011;46321;48.398;11.754;2023-10-31T11:00:58;2.38;;;0.77;;
60478;SDS011;46321;48.398;11.754;2023-10-31T11:03:24;2.83;;;0.88;;
60478;SDS011;46321;48.398;11.754;2023-10-31T11:05:52;1.67;;;0.60;;
60478;SDS011;46321;48.398;11.754;2023-10-31T11:08:19;1.85;;;0.77;;
60478;SDS011;46321;48.398;11.754;2023-10-31T11:10:46;3.03;;;0.82;;
60478;SDS011;46321;48.398;11.754;2023-10-31T11:13:12;2.35;;;0.60;;
60478;SDS011;46321;48.398;11.754;2023-10-31T11:15:37;2.50;;;0.70;;
60478;SDS011;46321;48.398;11.754;2023-10-31T11:18:03;1.45;;;0.85;;
60478;SDS011;46321;48.398;11.754;2023-10-31T11:20:30;1.10;;;0.90;;
60478;SDS011;46321;48.398;11.754;2023-10-31T11:22:56;1.30;;;0.70;;
60478;SDS011;46321;48.398;11.754;2023-10-31T11:25:22;1.00;;;0.50;;
60478;SDS011;46321;48.398;11.754;2023-10-31T11:27:52;2.17;;;0.95;;
60478;SDS011;46321;48.398;11.754;2023-10-31T11:32:54;3.08;;;0.80;;
60478;SDS011;46321;48.398;11.754;2023-10-31T11:35:21;3.30;;;0.70;;
60478;SDS011;46321;48.398;11.754;2023-10-31T11:37:48;1.75;;;0.90;;
60478;SDS011;46321;48.398;11.754;2023-10-31T11:40:15;1.20;;;0.70;;
60478;SDS011;46321;48.398;11.754;2023-10-31T11:42:57;2.58;;;0.68;;
60478;SDS011;46321;48.398;11.754;2023-10-31T11:45:37;1.42;;;0.60;;
60478;SDS011;46321;48.398;11.754;2023-10-31T11:48:07;2.08;;;0.70;;
60478;SDS011;46321;48.398;11.754;2023-10-31T11:50:33;2.38;;;0.75;;
60478;SDS011;46321;48.398;11.754;2023-10-31T11:53:06;1.30;;;0.60;;
60478;SDS011;46321;48.398;11.754;2023-10-31T11:55:42;1.58;;;0.80;;
60478;SDS011;46321;48.398;11.754;2023-10-31T11:58:18;1.77;;;0.85;;
60478;SDS011;46321;48.398;11.754;2023-10-31T12:00:48;1.75;;;0.60;;
60478;SDS011;46321;48.398;11.754;2023-10-31T12:03:16;2.35;;;0.73;;
60478;SDS011;46321;48.398;11.754;2023-10-31T12:05:55;1.38;;;0.95;;
60478;SDS011;46321;48.398;11.754;2023-10-31T12:08:33;3.47;;;1.48;;
60478;SDS011;46321;48.398;11.754;2023-10-31T12:11:05;4.70;;;3.10;;
60478;SDS011;46321;48.398;11.754;2023-10-31T12:13:37;6.35;;;4.25;;
60478;SDS011;46321;48.398;11.754;2023-10-31T12:16:04;6.13;;;4.00;;
60478;SDS011;46321;48.398;11.754;2023-10-31T12:18:31;7.03;;;4.28;;
60478;SDS011;46321;48.398;11.754;2023-10-31T12:20:58;4.57;;;3.35;;
60478;SDS011;46321;48.398;11.754;2023-10-31T12:23:23;2.25;;;1.60;;
60478;SDS011;46321;48.398;11.754;2023-10-31T12:25:51;1.38;;;0.80;;
60478;SDS011;46321;48.398;11.754;2023-10-31T12:28:18;1.98;;;1.23;;
60478;SDS011;46321;48.398;11.754;2023-10-31T12:30:44;4.60;;;2.15;;
60478;SDS011;46321;48.398;11.754;2023-10-31T12:33:11;5.10;;;4.00;;
60478;SDS011;46321;48.398;11.754;2023-10-31T12:35:36;6.35;;;4.03;;
60478;SDS011;46321;48.398;11.754;2023-10-31T12:38:02;7.93;;;6.00;;
60478;SDS011;46321;48.398;11.754;2023-10-31T12:40:28;14.10;;;7.38;;
60478;SDS011;46321;48.398;11.754;2023-10-31T12:42:53;9.10;;;3.15;;
60478;SDS011;46321;48.398;11.754;2023-10-31T12:45:19;15.63;;;7.38;;
60478;SDS011;46321;48.398;11.754;2023-10-31T12:47:44;6.70;;;3.42;;
60478;SDS011;46321;48.398;11.754;2023-10-31T12:50:13;16.30;;;7.68;;
60478;SDS011;46321;48.398;11.754;2023-10-31T12:52:48;28.10;;;13.05;;
60478;SDS011;46321;48.398;11.754;2023-10-31T12:55:21;16.17;;;6.13;;
60478;SDS011;46321;48.398;11.754;2023-10-31T12:57:47;7.63;;;3.20;;
60478;SDS011;46321;48.398;11.754;2023-10-31T13:00:14;5.07;;;2.53;;
60478;SDS011;46321;48.398;11.754;2023-10-31T13:02:43;6.97;;;3.15;;
60478;SDS011;46321;48.398;11.754;2023-10-31T13:05:10;10.20;;;5.40;;
60478;SDS011;46321;48.398;11.754;2023-10-31T13:07:37;9.98;;;4.32;;
60478;SDS011;46321;48.398;11.754;2023-10-31T13:10:02;7.20;;;5.53;;
60478;SDS011;46321;48.398;11.754;2023-10-31T13:12:29;2.45;;;2.08;;
60478;SDS011;46321;48.398;11.754;2023-10-31T13:14:55;3.38;;;2.58;;
60478;SDS011;46321;48.398;11.754;2023-10-31T13:17:21;4.38;;;1.50;;
60478;SDS011;46321;48.398;11.754;2023-10-31T13:19:46;2.33;;;0.80;;
60478;SDS011;46321;48.398;11.754;2023-10-31T13:22:11;3.20;;;1.30;;
60478;SDS011;46321;48.398;11.754;2023-10-31T13:24:37;3.77;;;1.40;;
60478;SDS011;46321;48.398;11.754;2023-10-31T13:27:02;2.72;;;0.90;;
60478;SDS011;46321;48.398;11.754;2023-10-31T13:29:28;2.80;;;1.73;;
60478;SDS011;46321;48.398;11.754;2023-10-31T13:31:54;2.30;;;1.10;;
60478;SDS011;46321;48.398;11.754;2023-10-31T13:34:19;3.70;;;1.52;;
60478;SDS011;46321;48.398;11.754;2023-10-31T13:36:44;10.80;;;5.40;;
60478;SDS011;46321;48.398;11.754;2023-10-31T13:39:09;2.30;;;1.60;;
60478;SDS011;46321;48.398;11.754;2023-10-31T13:41:35;3.17;;;1.08;;
60478;SDS011;46321;48.398;11.754;2023-10-31T13:44:00;3.33;;;1.50;;
60478;SDS011;46321;48.398;11.754;2023-10-31T13:46:28;3.22;;;1.20;;
60478;SDS011;46321;48.398;11.754;2023-10-31T13:48:53;1.30;;;0.77;;
60478;SDS011;46321;48.398;11.754;2023-10-31T13:51:18;1.23;;;0.70;;
60478;SDS011;46321;48.398;11.754;2023-10-31T13:53:44;2.75;;;0.70;;
60478;SDS011;46321;48.398;11.754;2023-10-31T13:56:09;3.33;;;0.90;;
60478;SDS011;46321;48.398;11.754;2023-10-31T13:58:34;0.82;;;0.70;;
60478;SDS011;46321;48.398;11.754;2023-10-31T14:01:00;1.13;;;0.70;;
60478;SDS011;46321;48.398;11.754;2023-10-31T14:03:26;1.02;;;0.63;;
60478;SDS011;46321;48.398;11.754;2023-10-31T14:05:51;1.33;;;0.68;;
60478;SDS011;46321;48.398;11.754;2023-10-31T14:08:16;4.90;;;0.90;;
60478;SDS011;46321;48.398;11.754;2023-10-31T14:10:42;2.08;;;0.73;;
60478;SDS011;46321;48.398;11.754;2023-10-31T14:13:10;2.05;;;0.60;;
60478;SDS011;46321;48.398;11.754;2023-10-31T14:15:35;1.60;;;0.85;;
60478;SDS011;46321;48.398;11.754;2023-10-31T14:18:01;2.47;;;1.67;;
60478;SDS011;46321;48.398;11.754;2023-10-31T14:20:27;1.48;;;0.90;;
60478;SDS011;46321;48.398;11.754;2023-10-31T14:22:53;4.30;;;1.10;;
60478;SDS011;46321;48.398;11.754;2023-10-31T14:25:18;3.07;;;0.90;;
60478;SDS011;46321;48.398;11.754;2023-10-31T14:27:43;2.03;;;0.60;;
60478;SDS011;46321;48.398;11.754;2023-10-31T14:30:09;0.85;;;0.60;;
60478;SDS011;46321;48.398;11.754;2023-10-31T14:32:35;0.68;;;0.50;;